createdAt,value
2018-02-27T00:00:31.823Z,0
2018-02-27T00:01:34.553Z,0
2018-02-27T00:02:36.977Z,0
2018-02-27T00:03:39.374Z,0
2018-02-27T00:04:41.805Z,0
2018-02-27T00:05:44.785Z,0
2018-02-27T00:06:47.197Z,0
2018-02-27T00:07:49.609Z,0
2018-02-27T00:08:52.024Z,0
2018-02-27T00:09:54.438Z,0
2018-02-27T00:10:56.864Z,0
2018-02-27T00:11:59.578Z,0
2018-02-27T00:13:02.276Z,0
2018-02-27T00:14:04.694Z,0
2018-02-27T00:15:07.105Z,0
2018-02-27T00:16:09.531Z,0
2018-02-27T00:17:11.945Z,0
2018-02-27T00:18:14.630Z,0
2018-02-27T00:19:17.337Z,0
2018-02-27T00:20:19.748Z,0
2018-02-27T00:21:22.165Z,0
2018-02-27T00:22:24.578Z,0
2018-02-27T00:23:26.994Z,0
2018-02-27T00:24:29.403Z,0
2018-02-27T00:25:31.830Z,0
2018-02-27T00:26:34.238Z,0
2018-02-27T00:27:36.653Z,0
2018-02-27T00:28:39.073Z,0
2018-02-27T00:29:41.468Z,0
2018-02-27T00:30:43.882Z,0
2018-02-27T00:31:46.571Z,0
2018-02-27T00:32:48.998Z,0
2018-02-27T00:33:51.413Z,0
2018-02-27T00:34:53.814Z,0
2018-02-27T00:35:56.232Z,0
2018-02-27T00:36:58.656Z,0
2018-02-27T00:38:01.074Z,0
2018-02-27T00:39:03.775Z,0
2018-02-27T00:40:06.470Z,0
2018-02-27T00:41:08.881Z,0
2018-02-27T00:42:11.873Z,0
2018-02-27T00:43:14.286Z,0
2018-02-27T00:44:16.979Z,0
2018-02-27T00:45:19.396Z,0
2018-02-27T00:46:21.802Z,0
2018-02-27T00:47:24.223Z,0
2018-02-27T00:48:26.635Z,0
2018-02-27T00:49:29.045Z,0
2018-02-27T00:50:31.467Z,0
2018-02-27T00:51:34.159Z,0
2018-02-27T00:52:36.559Z,0
2018-02-27T00:53:38.988Z,0
2018-02-27T00:54:41.397Z,0
2018-02-27T00:55:43.813Z,0
2018-02-27T00:56:46.228Z,0
2018-02-27T00:57:48.643Z,0
2018-02-27T00:58:51.055Z,0
2018-02-27T00:59:53.487Z,0
2018-02-27T01:00:55.888Z,0
2018-02-27T01:01:58.293Z,0
2018-02-27T01:03:00.711Z,0
2018-02-27T01:04:03.126Z,0
2018-02-27T01:05:05.547Z,0
2018-02-27T01:06:07.949Z,0
2018-02-27T01:07:10.373Z,0
2018-02-27T01:08:12.783Z,0
2018-02-27T01:09:15.197Z,0
2018-02-27T01:10:17.612Z,0
2018-02-27T01:11:20.035Z,0
2018-02-27T01:12:22.446Z,0
2018-02-27T01:13:24.907Z,0
2018-02-27T01:14:27.274Z,0
2018-02-27T01:15:29.688Z,0
2018-02-27T01:16:32.107Z,0
2018-02-27T01:17:34.512Z,0
2018-02-27T01:18:36.932Z,0
2018-02-27T01:19:39.352Z,0
2018-02-27T01:20:41.764Z,0
2018-02-27T01:21:44.172Z,0
2018-02-27T01:22:46.592Z,0
2018-02-27T01:23:49.000Z,0
2018-02-27T01:24:51.425Z,0
2018-02-27T01:25:53.856Z,0
2018-02-27T01:26:56.246Z,0
2018-02-27T01:27:58.665Z,0
2018-02-27T01:29:01.080Z,0
2018-02-27T01:30:03.503Z,0
2018-02-27T01:31:05.926Z,0
2018-02-27T01:32:08.918Z,0
2018-02-27T01:33:11.338Z,0
2018-02-27T01:34:13.745Z,0
2018-02-27T01:35:16.164Z,0
2018-02-27T01:36:18.572Z,0
2018-02-27T01:37:21.560Z,0
2018-02-27T01:38:23.974Z,0
2018-02-27T01:39:26.395Z,0
2018-02-27T01:40:28.804Z,0
2018-02-27T01:41:31.221Z,0
2018-02-27T01:42:33.638Z,0
2018-02-27T01:43:36.052Z,0
2018-02-27T01:44:38.471Z,0
2018-02-27T01:45:40.884Z,0
2018-02-27T01:46:43.315Z,0
2018-02-27T01:47:45.717Z,0
2018-02-27T01:48:48.132Z,0
2018-02-27T01:49:50.542Z,0
2018-02-27T01:50:53.260Z,0
2018-02-27T01:51:55.673Z,0
2018-02-27T01:52:58.370Z,0
2018-02-27T01:54:00.782Z,0
2018-02-27T01:55:03.490Z,0
2018-02-27T01:56:05.902Z,0
2018-02-27T01:57:08.322Z,0
2018-02-27T01:58:10.727Z,0
2018-02-27T01:59:13.147Z,0
2018-02-27T02:00:15.568Z,0
2018-02-27T02:01:17.983Z,0
2018-02-27T02:02:20.689Z,0
2018-02-27T02:03:23.104Z,0
2018-02-27T02:04:25.531Z,0
2018-02-27T02:05:27.925Z,0
2018-02-27T02:06:30.634Z,0
2018-02-27T02:07:33.052Z,0
2018-02-27T02:08:35.466Z,0
2018-02-27T02:09:37.881Z,0
2018-02-27T02:10:40.297Z,0
2018-02-27T02:11:42.708Z,0
2018-02-27T02:12:45.134Z,0
2018-02-27T02:13:47.549Z,0
2018-02-27T02:14:49.962Z,0
2018-02-27T02:15:52.667Z,0
2018-02-27T02:16:55.083Z,0
2018-02-27T02:17:57.499Z,0
2018-02-27T02:19:00.201Z,0
2018-02-27T02:20:02.613Z,0
2018-02-27T02:21:05.028Z,0
2018-02-27T02:22:07.441Z,0
2018-02-27T02:23:09.856Z,0
2018-02-27T02:24:12.288Z,0
2018-02-27T02:25:14.996Z,0
2018-02-27T02:26:17.687Z,0
2018-02-27T02:27:20.106Z,0
2018-02-27T02:28:22.515Z,0
2018-02-27T02:29:25.231Z,0
2018-02-27T02:30:27.983Z,0
2018-02-27T02:31:30.347Z,0
2018-02-27T02:32:32.765Z,0
2018-02-27T02:33:35.501Z,0
2018-02-27T02:34:38.199Z,0
2018-02-27T02:35:40.892Z,0
2018-02-27T02:36:43.327Z,0
2018-02-27T02:37:45.738Z,0
2018-02-27T02:38:48.456Z,0
2018-02-27T02:39:51.157Z,0
2018-02-27T02:40:54.164Z,0
2018-02-27T02:41:56.588Z,0
2018-02-27T02:42:58.995Z,0
2018-02-27T02:44:01.416Z,0
2018-02-27T02:45:03.828Z,0
2018-02-27T02:46:06.247Z,0
2018-02-27T02:47:08.659Z,0
2018-02-27T02:48:11.360Z,0
2018-02-27T02:49:13.786Z,0
2018-02-27T02:50:16.184Z,0
2018-02-27T02:51:18.611Z,0
2018-02-27T02:52:21.312Z,0
2018-02-27T02:53:23.729Z,0
2018-02-27T02:54:26.146Z,0
2018-02-27T02:55:28.565Z,0
2018-02-27T02:56:30.970Z,0
2018-02-27T02:57:33.398Z,0
2018-02-27T02:58:35.812Z,0
2018-02-27T02:59:38.224Z,0
2018-02-27T03:00:40.635Z,0
2018-02-27T03:01:43.052Z,0
2018-02-27T03:02:45.458Z,0
2018-02-27T03:03:47.882Z,0
2018-02-27T03:04:50.286Z,0
2018-02-27T03:05:53.575Z,0
2018-02-27T03:06:56.296Z,0
2018-02-27T03:07:58.706Z,0
2018-02-27T03:09:01.130Z,0
2018-02-27T03:10:03.548Z,0
2018-02-27T03:11:05.959Z,0
2018-02-27T03:12:08.656Z,0
2018-02-27T03:13:11.369Z,0
2018-02-27T03:14:13.765Z,0
2018-02-27T03:15:16.177Z,0
2018-02-27T03:16:18.600Z,0
2018-02-27T03:17:21.014Z,0
2018-02-27T03:18:23.435Z,0
2018-02-27T03:19:26.132Z,0
2018-02-27T03:20:28.549Z,0
2018-02-27T03:21:30.974Z,0
2018-02-27T03:22:33.395Z,0
2018-02-27T03:23:35.801Z,0
2018-02-27T03:24:38.212Z,0
2018-02-27T03:25:40.626Z,0
2018-02-27T03:26:43.041Z,0
2018-02-27T03:27:45.740Z,0
2018-02-27T03:28:48.435Z,0
2018-02-27T03:29:50.854Z,0
2018-02-27T03:30:53.255Z,0
2018-02-27T03:31:55.667Z,0
2018-02-27T03:32:58.086Z,0
2018-02-27T03:34:00.784Z,0
2018-02-27T03:35:03.203Z,0
2018-02-27T03:36:05.617Z,0
2018-02-27T03:37:08.023Z,0
2018-02-27T03:38:10.454Z,0
2018-02-27T03:39:12.872Z,0
2018-02-27T03:40:15.286Z,0
2018-02-27T03:41:17.706Z,0
2018-02-27T03:42:20.115Z,0
2018-02-27T03:43:22.802Z,0
2018-02-27T03:44:25.220Z,0
2018-02-27T03:45:27.631Z,0
2018-02-27T03:46:30.044Z,0
2018-02-27T03:47:32.474Z,0
2018-02-27T03:48:34.889Z,0
2018-02-27T03:49:37.293Z,0
2018-02-27T03:50:39.715Z,0
2018-02-27T03:51:42.129Z,0
2018-02-27T03:52:45.127Z,0
2018-02-27T03:53:47.548Z,0
2018-02-27T03:54:49.953Z,0
2018-02-27T03:55:52.368Z,0
2018-02-27T03:56:55.091Z,0
2018-02-27T03:57:57.786Z,0
2018-02-27T03:59:00.198Z,0
2018-02-27T04:00:02.616Z,0
2018-02-27T04:01:05.318Z,0
2018-02-27T04:02:07.722Z,0
2018-02-27T04:03:10.138Z,0
2018-02-27T04:04:13.135Z,0
2018-02-27T04:05:15.549Z,0
2018-02-27T04:06:17.953Z,0
2018-02-27T04:07:20.656Z,0
2018-02-27T04:08:23.356Z,0
2018-02-27T04:09:25.854Z,0
2018-02-27T04:10:28.195Z,0
2018-02-27T04:11:30.594Z,0
2018-02-27T04:12:33.025Z,0
2018-02-27T04:13:35.429Z,0
2018-02-27T04:14:37.854Z,0
2018-02-27T04:15:40.262Z,0
2018-02-27T04:16:43.016Z,0
2018-02-27T04:17:45.389Z,0
2018-02-27T04:18:47.811Z,0
2018-02-27T04:19:50.214Z,0
2018-02-27T04:20:52.635Z,0
2018-02-27T04:21:55.040Z,0
2018-02-27T04:22:57.446Z,0
2018-02-27T04:23:59.867Z,0
2018-02-27T04:25:02.579Z,0
2018-02-27T04:26:05.273Z,0
2018-02-27T04:27:07.978Z,0
2018-02-27T04:28:10.384Z,0
2018-02-27T04:29:13.072Z,0
2018-02-27T04:30:15.499Z,0
2018-02-27T04:31:17.900Z,0
2018-02-27T04:32:20.320Z,0
2018-02-27T04:33:22.736Z,0
2018-02-27T04:34:25.459Z,0
2018-02-27T04:35:28.160Z,0
2018-02-27T04:36:30.579Z,0
2018-02-27T04:37:32.980Z,0
2018-02-27T04:38:35.401Z,0
2018-02-27T04:39:38.130Z,0
2018-02-27T04:40:40.537Z,0
2018-02-27T04:41:43.233Z,0
2018-02-27T04:42:45.644Z,0
2018-02-27T04:43:48.053Z,0
2018-02-27T04:44:50.772Z,0
2018-02-27T04:45:53.180Z,0
2018-02-27T04:46:55.600Z,0
2018-02-27T04:47:58.015Z,0
2018-02-27T04:49:00.432Z,0
2018-02-27T04:50:03.154Z,0
2018-02-27T04:51:05.880Z,0
2018-02-27T04:52:08.563Z,0
2018-02-27T04:53:11.275Z,0
2018-02-27T04:54:13.689Z,0
2018-02-27T04:55:16.392Z,0
2018-02-27T04:56:18.811Z,0
2018-02-27T04:57:21.226Z,0
2018-02-27T04:58:23.632Z,0
2018-02-27T04:59:26.049Z,0
2018-02-27T05:00:28.459Z,0
2018-02-27T05:01:31.175Z,0
2018-02-27T05:02:33.585Z,0
2018-02-27T05:03:35.998Z,0
2018-02-27T05:04:38.419Z,0
2018-02-27T05:05:40.834Z,0
2018-02-27T05:06:43.257Z,0
2018-02-27T05:07:45.669Z,0
2018-02-27T05:08:48.081Z,0
2018-02-27T05:09:50.500Z,0
2018-02-27T05:10:53.198Z,0
2018-02-27T05:11:55.619Z,0
2018-02-27T05:12:58.037Z,0
2018-02-27T05:14:00.445Z,0
2018-02-27T05:15:02.866Z,0
2018-02-27T05:16:05.290Z,0
2018-02-27T05:17:07.976Z,0
2018-02-27T05:18:10.708Z,0
2018-02-27T05:19:13.141Z,0
2018-02-27T05:20:15.840Z,0
2018-02-27T05:21:18.263Z,0
2018-02-27T05:22:20.671Z,0
2018-02-27T05:23:23.093Z,0
2018-02-27T05:24:25.806Z,0
2018-02-27T05:25:28.224Z,0
2018-02-27T05:26:30.946Z,0
2018-02-27T05:27:33.653Z,0
2018-02-27T05:28:36.066Z,0
2018-02-27T05:29:38.484Z,0
2018-02-27T05:30:41.484Z,0
2018-02-27T05:32:46.650Z,4
2018-02-27T05:33:49.066Z,0
2018-02-27T05:34:51.476Z,4
2018-02-27T05:35:53.895Z,4
2018-02-27T05:36:56.312Z,4
2018-02-27T05:37:58.720Z,8
2018-02-27T05:39:01.134Z,4
2018-02-27T05:40:04.122Z,8
2018-02-27T05:41:06.543Z,8
2018-02-27T05:42:08.965Z,8
2018-02-27T05:43:11.373Z,12
2018-02-27T05:44:13.798Z,12
2018-02-27T05:45:16.219Z,16
2018-02-27T05:46:18.917Z,20
2018-02-27T05:47:21.334Z,24
2018-02-27T05:48:23.750Z,28
2018-02-27T05:49:26.445Z,32
2018-02-27T05:50:28.876Z,40
2018-02-27T05:51:31.269Z,48
2018-02-27T05:52:33.693Z,52
2018-02-27T05:53:36.396Z,60
2018-02-27T05:54:39.100Z,72
2018-02-27T05:55:41.520Z,84
2018-02-27T05:56:44.219Z,96
2018-02-27T05:57:46.631Z,112
2018-02-27T05:58:49.042Z,124
2018-02-27T05:59:51.501Z,140
2018-02-27T06:00:53.884Z,160
2018-02-27T06:01:56.598Z,176
2018-02-27T06:02:59.000Z,200
2018-02-27T06:04:01.700Z,224
2018-02-27T06:05:04.406Z,244
2018-02-27T06:06:07.116Z,272
2018-02-27T06:07:09.535Z,300
2018-02-27T06:08:11.938Z,332
2018-02-27T06:09:14.357Z,360
2018-02-27T06:10:17.071Z,392
2018-02-27T06:11:19.471Z,424
2018-02-27T06:12:21.895Z,464
2018-02-27T06:13:24.304Z,504
2018-02-27T06:14:26.715Z,540
2018-02-27T06:15:29.138Z,580
2018-02-27T06:16:31.548Z,628
2018-02-27T06:17:34.236Z,672
2018-02-27T06:18:36.662Z,720
2018-02-27T06:19:39.081Z,768
2018-02-27T06:20:41.492Z,816
2018-02-27T06:21:43.916Z,868
2018-02-27T06:22:46.606Z,920
2018-02-27T06:23:49.329Z,972
2018-02-27T06:24:51.766Z,1020
2018-02-27T06:25:54.170Z,1076
2018-02-27T06:26:56.585Z,1132
2018-02-27T06:27:59.008Z,1188
2018-02-27T06:29:01.419Z,1248
2018-02-27T06:30:04.114Z,1320
2018-02-27T06:31:06.535Z,1388
2018-02-27T06:32:08.958Z,1456
2018-02-27T06:33:11.378Z,1520
2018-02-27T06:34:13.773Z,1588
2018-02-27T06:35:16.191Z,1616
2018-02-27T06:36:18.611Z,1672
2018-02-27T06:37:21.059Z,1724
2018-02-27T06:38:23.446Z,1812
2018-02-27T06:39:25.856Z,1904
2018-02-27T06:40:28.837Z,1972
2018-02-27T06:41:31.268Z,2036
2018-02-27T06:42:33.969Z,2104
2018-02-27T06:43:36.387Z,2168
2018-02-27T06:44:39.095Z,2236
2018-02-27T06:45:41.505Z,2300
2018-02-27T06:46:43.930Z,2376
2018-02-27T06:47:46.346Z,2448
2018-02-27T06:48:48.752Z,2508
2018-02-27T06:49:51.167Z,2580
2018-02-27T06:50:53.928Z,2660
2018-02-27T06:51:56.341Z,2732
2018-02-27T06:52:58.756Z,2812
2018-02-27T06:54:01.172Z,2888
2018-02-27T06:55:03.589Z,2972
2018-02-27T06:56:05.999Z,3048
2018-02-27T06:57:08.414Z,3128
2018-02-27T06:58:11.128Z,3248
2018-02-27T06:59:13.540Z,3288
2018-02-27T07:00:15.964Z,3404
2018-02-27T07:01:18.371Z,3552
2018-02-27T07:02:20.794Z,3648
2018-02-27T07:03:23.203Z,3836
2018-02-27T07:04:25.633Z,3956
2018-02-27T07:05:28.027Z,4100
2018-02-27T07:06:30.442Z,4076
2018-02-27T07:07:32.860Z,4844
2018-02-27T07:08:35.283Z,5896
2018-02-27T07:09:37.698Z,5380
2018-02-27T07:10:40.118Z,5272
2018-02-27T07:11:42.557Z,4956
2018-02-27T07:12:44.956Z,5168
2018-02-27T07:13:47.371Z,5452
2018-02-27T07:14:49.782Z,5336
2018-02-27T07:15:52.203Z,5184
2018-02-27T07:16:54.910Z,5112
2018-02-27T07:17:57.329Z,4964
2018-02-27T07:18:59.753Z,4768
2018-02-27T07:20:02.164Z,4732
2018-02-27T07:21:04.887Z,4636
2018-02-27T07:22:07.302Z,4540
2018-02-27T07:23:09.722Z,4536
2018-02-27T07:24:12.127Z,4544
2018-02-27T07:25:14.540Z,4864
2018-02-27T07:26:16.966Z,5012
2018-02-27T07:27:19.381Z,5392
2018-02-27T07:28:22.090Z,5804
2018-02-27T07:29:24.803Z,5840
2018-02-27T07:30:27.218Z,9612
2018-02-27T07:31:29.627Z,14656
2018-02-27T07:32:32.063Z,16640
2018-02-27T07:33:34.479Z,21088
2018-02-27T07:34:37.197Z,29536
2018-02-27T07:35:39.612Z,32512
2018-02-27T07:36:42.328Z,29664
2018-02-27T07:37:45.040Z,29152
2018-02-27T07:38:47.459Z,30272
2018-02-27T07:39:49.870Z,28288
2018-02-27T07:40:52.293Z,27360
2018-02-27T07:41:55.001Z,28032
2018-02-27T07:42:57.430Z,24224
2018-02-27T07:43:59.849Z,20576
2018-02-27T07:45:02.271Z,24672
2018-02-27T07:46:04.682Z,24448
2018-02-27T07:47:07.405Z,25120
2018-02-27T07:48:09.815Z,24256
2018-02-27T07:49:12.236Z,25184
2018-02-27T07:50:14.652Z,27296
2018-02-27T07:51:17.070Z,27424
2018-02-27T07:52:19.484Z,25184
2018-02-27T07:53:21.905Z,33024
2018-02-27T07:54:24.326Z,39072
2018-02-27T07:55:26.751Z,35008
2018-02-27T07:56:29.156Z,26080
2018-02-27T07:57:31.589Z,25088
2018-02-27T07:58:34.311Z,25248
2018-02-27T07:59:36.717Z,25760
2018-02-27T08:00:39.140Z,25440
2018-02-27T08:01:41.565Z,24128
2018-02-27T08:02:44.264Z,25760
2018-02-27T08:03:46.699Z,13504
2018-02-27T08:04:49.111Z,24576
2018-02-27T08:05:51.527Z,25824
2018-02-27T08:06:54.249Z,22400
2018-02-27T08:07:56.669Z,29920
2018-02-27T08:08:59.090Z,33536
2018-02-27T08:10:01.529Z,32960
2018-02-27T08:11:04.228Z,33472
2018-02-27T08:12:06.669Z,31776
2018-02-27T08:13:09.098Z,33472
2018-02-27T08:14:11.797Z,29984
2018-02-27T08:15:14.231Z,24000
2018-02-27T08:16:16.673Z,27040
2018-02-27T08:17:19.068Z,31424
2018-02-27T08:18:21.489Z,29088
2018-02-27T08:19:23.903Z,32288
2018-02-27T08:20:26.334Z,30592
2018-02-27T08:21:29.074Z,27200
2018-02-27T08:22:31.780Z,39808
2018-02-27T08:23:34.493Z,42304
2018-02-27T08:24:36.911Z,40064
2018-02-27T08:25:39.345Z,34752
2018-02-27T08:26:41.777Z,25632
2018-02-27T08:27:44.186Z,36640
2018-02-27T08:28:46.621Z,28704
2018-02-27T08:29:49.330Z,14660
2018-02-27T08:30:52.027Z,17724
2018-02-27T08:31:54.728Z,31776
2018-02-27T08:32:57.468Z,37280
2018-02-27T08:33:59.891Z,13672
2018-02-27T08:35:02.320Z,11228
2018-02-27T08:36:04.731Z,9592
2018-02-27T08:37:07.151Z,8380
2018-02-27T08:38:09.590Z,6724
2018-02-27T08:39:11.997Z,5416
2018-02-27T08:40:14.439Z,4848
2018-02-27T08:41:16.851Z,5172
2018-02-27T08:42:19.280Z,5852
2018-02-27T08:43:21.702Z,6508
2018-02-27T08:44:24.129Z,7012
2018-02-27T08:45:26.835Z,7888
2018-02-27T08:46:29.554Z,8308
2018-02-27T08:47:31.967Z,8548
2018-02-27T08:48:34.391Z,8884
2018-02-27T08:49:36.822Z,8668
2018-02-27T08:50:39.236Z,9740
2018-02-27T08:51:41.657Z,10604
2018-02-27T08:52:44.079Z,9716
2018-02-27T08:53:46.498Z,9528
2018-02-27T08:54:48.921Z,8784
2018-02-27T08:55:51.909Z,7184
2018-02-27T08:56:54.331Z,6564
2018-02-27T08:57:57.041Z,5096
2018-02-27T08:58:59.452Z,5124
2018-02-27T09:00:02.445Z,4628
2018-02-27T09:01:04.869Z,5356
2018-02-27T09:02:07.292Z,7372
2018-02-27T09:03:09.722Z,8308
2018-02-27T09:04:12.143Z,8880
2018-02-27T09:05:14.560Z,8328
2018-02-27T09:06:16.977Z,7504
2018-02-27T09:07:19.688Z,6412
2018-02-27T09:08:22.103Z,5996
2018-02-27T09:09:24.814Z,6412
2018-02-27T09:10:27.225Z,6660
2018-02-27T09:11:29.652Z,6808
2018-02-27T09:12:32.080Z,8096
2018-02-27T09:13:34.771Z,9792
2018-02-27T09:14:37.244Z,10084
2018-02-27T09:15:39.618Z,9396
2018-02-27T09:16:42.328Z,10752
2018-02-27T09:17:44.750Z,11644
2018-02-27T09:18:47.176Z,12244
2018-02-27T09:19:49.592Z,13768
2018-02-27T09:20:52.026Z,14100
2018-02-27T09:21:54.444Z,14236
2018-02-27T09:22:56.851Z,14964
2018-02-27T09:23:59.272Z,14368
2018-02-27T09:25:01.983Z,14032
2018-02-27T09:26:04.388Z,16188
2018-02-27T09:27:06.823Z,17572
2018-02-27T09:28:09.248Z,18656
2018-02-27T09:29:11.661Z,22976
2018-02-27T09:30:14.093Z,22816
2018-02-27T09:31:16.537Z,18912
2018-02-27T09:32:18.939Z,20928
2018-02-27T09:33:21.356Z,24224
2018-02-27T09:34:23.775Z,22080
2018-02-27T09:35:26.176Z,24096
2018-02-27T09:36:28.603Z,46720
2018-02-27T09:37:31.068Z,24512
2018-02-27T09:38:33.736Z,35136
2018-02-27T09:39:36.165Z,29440
2018-02-27T09:40:38.583Z,33664
2018-02-27T09:41:41.007Z,23424
2018-02-27T09:42:43.426Z,19936
2018-02-27T09:43:45.853Z,28576
2018-02-27T09:44:48.277Z,39872
2018-02-27T09:45:51.030Z,23328
2018-02-27T09:46:53.758Z,23424
2018-02-27T09:47:56.180Z,13904
2018-02-27T09:48:58.603Z,18432
2018-02-27T09:50:01.027Z,9472
2018-02-27T09:51:04.022Z,11764
2018-02-27T09:52:06.753Z,10936
2018-02-27T09:53:09.155Z,10788
2018-02-27T09:54:11.564Z,10668
2018-02-27T09:55:13.992Z,9120
2018-02-27T09:56:16.415Z,10508
2018-02-27T09:57:18.839Z,8252
2018-02-27T09:58:21.261Z,7628
2018-02-27T09:59:23.980Z,10652
2018-02-27T10:00:26.386Z,12080
2018-02-27T10:01:28.824Z,9744
2018-02-27T10:02:31.243Z,9960
2018-02-27T10:03:33.670Z,10352
2018-02-27T10:04:36.097Z,9160
2018-02-27T10:05:38.510Z,8452
2018-02-27T10:06:40.935Z,8384
2018-02-27T10:07:43.926Z,7956
2018-02-27T10:08:46.632Z,8792
2018-02-27T10:09:49.051Z,9812
2018-02-27T10:10:51.492Z,9400
2018-02-27T10:11:53.911Z,11132
2018-02-27T10:12:56.340Z,15928
2018-02-27T10:13:58.761Z,16300
2018-02-27T10:15:01.178Z,16884
2018-02-27T10:16:03.925Z,18720
2018-02-27T10:17:06.348Z,22400
2018-02-27T10:18:08.763Z,25632
2018-02-27T10:19:11.192Z,29696
2018-02-27T10:20:13.610Z,33216
2018-02-27T10:21:16.040Z,32672
2018-02-27T10:22:18.787Z,37632
2018-02-27T10:23:21.216Z,34304
2018-02-27T10:24:23.628Z,57120
2018-02-27T10:25:26.062Z,37888
2018-02-27T10:26:28.489Z,36576
2018-02-27T10:27:30.970Z,32000
2018-02-27T10:28:33.336Z,23968
2018-02-27T10:29:36.056Z,22144
2018-02-27T10:30:38.494Z,12392
2018-02-27T10:31:40.898Z,9784
2018-02-27T10:32:43.318Z,9332
2018-02-27T10:33:45.746Z,8232
2018-02-27T10:34:48.484Z,8304
2018-02-27T10:35:50.951Z,9704
2018-02-27T10:36:53.338Z,9780
2018-02-27T10:37:56.048Z,7812
2018-02-27T10:38:58.468Z,7592
2018-02-27T10:40:00.896Z,7504
2018-02-27T10:41:03.320Z,8276
2018-02-27T10:42:05.745Z,9680
2018-02-27T10:43:08.744Z,10424
2018-02-27T10:44:11.175Z,10528
2018-02-27T10:45:13.600Z,10684
2018-02-27T10:46:16.016Z,15308
2018-02-27T10:47:18.724Z,15668
2018-02-27T10:48:21.152Z,15108
2018-02-27T10:49:23.568Z,13876
2018-02-27T10:50:25.999Z,13016
2018-02-27T10:51:28.413Z,12728
2018-02-27T10:52:30.841Z,12612
2018-02-27T10:53:33.264Z,10820
2018-02-27T10:54:35.681Z,9444
2018-02-27T10:55:38.408Z,8436
2018-02-27T10:56:40.826Z,7804
2018-02-27T10:57:43.254Z,6340
2018-02-27T10:58:45.957Z,4724
2018-02-27T10:59:48.389Z,3424
2018-02-27T11:00:50.802Z,3404
2018-02-27T11:01:53.523Z,3968
2018-02-27T11:02:55.950Z,4188
2018-02-27T11:03:58.670Z,4472
2018-02-27T11:05:01.093Z,4616
2018-02-27T11:06:03.527Z,4644
2018-02-27T11:07:05.949Z,4460
2018-02-27T11:08:08.379Z,4592
2018-02-27T11:09:10.799Z,4940
2018-02-27T11:10:13.227Z,4348
2018-02-27T11:11:15.659Z,3880
2018-02-27T11:12:18.071Z,3448
2018-02-27T11:13:20.782Z,3412
2018-02-27T11:14:23.210Z,3344
2018-02-27T11:15:25.904Z,3504
2018-02-27T11:16:28.331Z,3728
2018-02-27T11:17:30.749Z,3940
2018-02-27T11:18:33.179Z,4204
2018-02-27T11:19:35.877Z,4084
2018-02-27T11:20:38.302Z,2964
2018-02-27T11:21:40.724Z,3028
2018-02-27T11:22:43.134Z,3556
2018-02-27T11:23:45.550Z,4092
2018-02-27T11:24:47.990Z,4528
2018-02-27T11:25:50.408Z,4552
2018-02-27T11:26:52.825Z,4784
2018-02-27T11:27:55.250Z,4956
2018-02-27T11:28:57.660Z,5556
2018-02-27T11:30:00.370Z,5800
2018-02-27T11:31:02.795Z,6420
2018-02-27T11:32:05.205Z,6776
2018-02-27T11:33:07.633Z,6984
2018-02-27T11:34:10.054Z,7260
2018-02-27T11:35:12.471Z,7808
2018-02-27T11:36:14.897Z,8472
2018-02-27T11:37:17.314Z,8944
2018-02-27T11:38:19.738Z,9880
2018-02-27T11:39:22.163Z,10788
2018-02-27T11:40:24.577Z,11476
2018-02-27T11:41:27.000Z,12084
2018-02-27T11:42:29.415Z,13364
2018-02-27T11:43:31.841Z,13552
2018-02-27T11:44:34.255Z,14868
2018-02-27T11:45:36.674Z,14472
2018-02-27T11:46:39.095Z,15636
2018-02-27T11:47:41.515Z,17856
2018-02-27T11:48:43.941Z,19040
2018-02-27T11:49:46.653Z,18656
2018-02-27T11:50:49.346Z,20512
2018-02-27T11:51:51.775Z,20544
2018-02-27T11:52:54.474Z,20192
2018-02-27T11:53:57.188Z,19616
2018-02-27T11:54:59.608Z,19200
2018-02-27T11:56:02.037Z,22144
2018-02-27T11:57:04.459Z,26368
2018-02-27T11:58:07.165Z,30848
2018-02-27T11:59:10.167Z,32224
2018-02-27T12:00:12.587Z,27712
2018-02-27T12:01:15.299Z,39040
2018-02-27T12:02:18.060Z,42688
2018-02-27T12:03:20.739Z,44000
2018-02-27T12:04:23.154Z,46656
2018-02-27T12:05:25.573Z,49504
2018-02-27T12:06:27.992Z,50496
2018-02-27T12:07:30.422Z,51808
2018-02-27T12:08:32.847Z,50336
2018-02-27T12:09:35.264Z,47104
2018-02-27T12:10:38.286Z,34240
2018-02-27T12:11:40.717Z,28736
2018-02-27T12:12:43.135Z,27232
2018-02-27T12:13:45.618Z,25984
2018-02-27T12:14:47.977Z,29056
2018-02-27T12:15:50.396Z,34368
2018-02-27T12:16:52.842Z,32896
2018-02-27T12:17:55.569Z,28832
2018-02-27T12:18:57.991Z,26656
2018-02-27T12:20:00.992Z,27616
2018-02-27T12:21:03.425Z,31008
2018-02-27T12:22:05.860Z,32256
2018-02-27T12:23:08.284Z,33216
2018-02-27T12:24:10.998Z,32128
2018-02-27T12:25:13.420Z,32512
2018-02-27T12:26:16.143Z,39232
2018-02-27T12:27:18.560Z,28480
2018-02-27T12:28:20.995Z,32192
2018-02-27T12:29:23.412Z,32896
2018-02-27T12:30:25.838Z,32352
2018-02-27T12:31:28.547Z,31744
2018-02-27T12:32:30.981Z,32608
2018-02-27T12:33:33.403Z,36256
2018-02-27T12:34:35.830Z,51552
2018-02-27T12:35:38.255Z,34080
2018-02-27T12:36:40.688Z,31904
2018-02-27T12:37:43.112Z,33408
2018-02-27T12:38:45.550Z,30784
2018-02-27T12:39:47.973Z,31680
2018-02-27T12:40:50.408Z,30688
2018-02-27T12:41:53.152Z,26560
2018-02-27T12:42:55.542Z,25120
2018-02-27T12:43:57.970Z,24704
2018-02-27T12:45:00.395Z,27296
2018-02-27T12:46:03.393Z,26880
2018-02-27T12:47:05.841Z,26592
2018-02-27T12:48:08.239Z,25728
2018-02-27T12:49:10.673Z,25216
2018-02-27T12:50:13.101Z,25440
2018-02-27T12:51:15.522Z,26624
2018-02-27T12:52:17.953Z,37280
2018-02-27T12:53:20.380Z,32896
2018-02-27T12:54:22.805Z,38656
2018-02-27T12:55:25.230Z,41280
2018-02-27T12:56:27.647Z,40160
2018-02-27T12:57:30.122Z,46720
2018-02-27T12:58:32.514Z,41088
2018-02-27T12:59:34.941Z,64576
2018-02-27T13:00:37.361Z,44896
2018-02-27T13:01:39.791Z,41760
2018-02-27T13:02:42.224Z,33792
2018-02-27T13:03:44.648Z,30880
2018-02-27T13:04:47.058Z,23712
2018-02-27T13:05:49.490Z,21536
2018-02-27T13:06:51.923Z,21056
2018-02-27T13:07:54.622Z,25792
2018-02-27T13:08:57.056Z,24192
2018-02-27T13:09:59.486Z,43264
2018-02-27T13:11:01.918Z,39680
2018-02-27T13:12:04.364Z,73952
2018-02-27T13:13:06.795Z,39296
2018-02-27T13:14:09.239Z,65888
2018-02-27T13:15:11.685Z,77280
2018-02-27T13:16:14.127Z,45088
2018-02-27T13:17:16.574Z,33344
2018-02-27T13:18:19.346Z,83232
2018-02-27T13:19:21.769Z,68256
2018-02-27T13:20:24.204Z,67232
2018-02-27T13:21:26.944Z,76896
2018-02-27T13:22:29.391Z,75808
2018-02-27T13:23:32.085Z,67872
2018-02-27T13:24:34.533Z,63328
2018-02-27T13:25:36.977Z,60416
2018-02-27T13:26:39.417Z,61536
2018-02-27T13:27:41.875Z,59456
2018-02-27T13:28:44.315Z,62208
2018-02-27T13:29:46.748Z,56352
2018-02-27T13:30:49.198Z,61856
2018-02-27T13:31:51.645Z,39392
2018-02-27T13:32:54.069Z,43904
2018-02-27T13:33:56.803Z,55616
2018-02-27T13:34:59.229Z,57728
2018-02-27T13:36:01.690Z,48512
2018-02-27T13:37:04.481Z,62240
2018-02-27T13:38:06.929Z,61120
2018-02-27T13:39:09.369Z,62688
2018-02-27T13:40:11.802Z,52000
2018-02-27T13:41:14.557Z,54336
2018-02-27T13:42:17.291Z,59680
2018-02-27T13:43:19.854Z,60128
2018-02-27T13:44:22.294Z,54848
2018-02-27T13:45:25.040Z,50208
2018-02-27T13:46:27.474Z,50432
2018-02-27T13:47:29.919Z,30144
2018-02-27T13:48:32.647Z,27872
2018-02-27T13:49:35.380Z,35200
2018-02-27T13:50:37.818Z,54848
2018-02-27T13:51:40.270Z,49632
2018-02-27T13:52:42.712Z,49472
2018-02-27T13:53:45.153Z,39744
2018-02-27T13:54:47.888Z,44768
2018-02-27T13:55:50.314Z,42304
2018-02-27T13:56:52.765Z,41600
2018-02-27T13:57:55.242Z,55232
2018-02-27T13:58:57.987Z,51008
2018-02-27T14:00:00.421Z,47616
2018-02-27T14:01:02.859Z,52032
2018-02-27T14:02:05.284Z,45824
2018-02-27T14:03:07.729Z,47872
2018-02-27T14:04:10.176Z,44544
2018-02-27T14:05:12.604Z,48000
2018-02-27T14:06:15.052Z,38528
2018-02-27T14:07:17.505Z,39008
2018-02-27T14:08:19.939Z,45056
2018-02-27T14:09:22.365Z,52192
2018-02-27T14:10:24.790Z,51136
2018-02-27T14:11:27.235Z,45568
2018-02-27T14:12:29.664Z,23936
2018-02-27T14:13:32.109Z,46016
2018-02-27T14:14:34.828Z,48640
2018-02-27T14:15:37.281Z,45952
2018-02-27T14:16:39.723Z,36192
2018-02-27T14:17:42.177Z,37472
2018-02-27T14:18:44.879Z,39552